Terminal Aerodrome Forecast
Issued by NWS Milwaukee/Sullivan, WI

Home | Current Version | Previous Version | Text Only | Print | Product List | Glossary On
Versions: 1 2 3 4 5 6 7 8 9 10 11 12 13 14 15 16 17 18 19 20 21 22 23 24 25 26 27
000
FTUS43 KMKX 162017 AAA
TAFMKE
TAF AMD
KMKE 162017Z 1620/1724 08009KT P6SM FEW090 SCT250
     FM170000 10009KT 6SM -SHRA VCTS OVC070CB
     FM170200 12009KT P6SM VCSH OVC050
     FM170600 14007KT P6SM VCTS OVC045CB
     FM171000 17008KT 6SM -SHRA OVC030
     FM171200 19008KT P6SM VCSH OVC025
     FM171600 22011G25KT P6SM VCSH BKN030=

USA.gov is the U.S. government's official web portal to all federal, state and local government web resources and services.